Time;durP1;ratioP1;P1;durP2;ratioP2;P2;SDS_P1;SDS_P2;PMS_P1;PMS_P2;Temp;Humidity;BMP_temperature;BMP_pressure;BME280_temperature;BME280_humidity;BME280_pressure;Samples;Min_cycle;Max_cycle;Signal;HPM_P1;HPM_P2
2022/11/16 00:00:18;;;;;;;39.85;24.05;;;;;;;;;;2104331;28;20043;-45
2022/11/16 00:01:20;;;;;;;41.33;25.20;;;;;;;;;;2104308;28;20044;-46
2022/11/16 00:02:21;;;;;;;41.88;26.48;;;;;;;;;;2104267;28;20287;-45
2022/11/16 00:03:22;;;;;;;43.97;31.25;;;;;;;;;;2104231;28;20040;-44
2022/11/16 00:04:23;;;;;;;46.85;28.40;;;;;;;;;;2104435;28;20048;-43
2022/11/16 00:05:25;;;;;;;38.55;24.42;;;;;;;;;;2104248;28;20059;-42
2022/11/16 00:06:29;;;;;;;36.95;22.27;;;;;;;;;;2104163;28;20479;-42
2022/11/16 00:07:30;;;;;;;34.30;22.92;;;;;;;;;;2104468;28;20094;-43
2022/11/16 00:08:33;;;;;;;38.22;23.52;;;;;;;;;;2105652;28;20408;-42
2022/11/16 00:09:34;;;;;;;38.50;24.35;;;;;;;;;;2112888;28;20055;-42
2022/11/16 00:10:35;;;;;;;38.78;23.33;;;;;;;;;;2107554;28;20504;-43
2022/11/16 00:11:37;;;;;;;35.67;21.67;;;;;;;;;;2107080;28;20180;-42
2022/11/16 00:12:39;;;;;;;34.90;21.45;;;;;;;;;;2107138;28;20047;-46
2022/11/16 00:13:41;;;;;;;36.65;22.40;;;;;;;;;;2107044;28;20390;-45
2022/11/16 00:14:42;;;;;;;33.28;20.85;;;;;;;;;;2106897;28;20048;-45
2022/11/16 00:15:43;;;;;;;36.20;22.43;;;;;;;;;;2107205;28;20047;-45
2022/11/16 00:16:44;;;;;;;37.10;22.55;;;;;;;;;;2106976;28;20289;-45
2022/11/16 00:17:45;;;;;;;34.00;20.10;;;;;;;;;;2106906;28;20477;-46
2022/11/16 00:18:46;;;;;;;38.80;22.88;;;;;;;;;;2106737;28;20044;-45
2022/11/16 00:19:48;;;;;;;32.17;20.67;;;;;;;;;;2107028;28;20043;-47
2022/11/16 00:20:49;;;;;;;32.47;20.70;;;;;;;;;;2106872;28;20400;-46
2022/11/16 00:21:51;;;;;;;36.97;21.80;;;;;;;;;;2106847;28;20044;-45
2022/11/16 00:22:51;;;;;;;37.88;22.30;;;;;;;;;;2106969;28;20052;-46
2022/11/16 00:23:53;;;;;;;37.57;22.73;;;;;;;;;;2106760;28;20165;-45
2022/11/16 00:24:54;;;;;;;32.50;20.38;;;;;;;;;;2106996;28;20097;-45
2022/11/16 00:26:00;;;;;;;34.58;21.63;;;;;;;;;;2106857;28;20048;-45
2022/11/16 00:27:01;;;;;;;33.58;21.08;;;;;;;;;;2107062;28;20047;-42
2022/11/16 00:28:03;;;;;;;33.72;21.63;;;;;;;;;;2106744;28;20071;-42
2022/11/16 00:29:23;;;;;;;32.65;21.52;;;;;;;;;;2106771;28;20271;-42
2022/11/16 00:30:24;;;;;;;34.65;21.70;;;;;;;;;;2106733;28;20386;-42
2022/11/16 00:31:26;;;;;;;32.93;21.27;;;;;;;;;;2106938;28;20397;-42
2022/11/16 00:32:27;;;;;;;35.65;22.08;;;;;;;;;;2106935;28;20285;-42
2022/11/16 00:33:28;;;;;;;34.22;22.15;;;;;;;;;;2106767;28;20393;-42
2022/11/16 00:34:29;;;;;;;31.95;20.33;;;;;;;;;;2106670;28;20480;-42
2022/11/16 00:35:31;;;;;;;36.92;22.35;;;;;;;;;;2107074;28;20044;-42
2022/11/16 00:36:31;;;;;;;37.03;22.70;;;;;;;;;;2106760;28;20397;-42
2022/11/16 00:37:33;;;;;;;32.20;21.77;;;;;;;;;;2106792;28;20055;-42
2022/11/16 00:38:34;;;;;;;35.92;22.00;;;;;;;;;;2106756;28;20055;-42
2022/11/16 00:39:36;;;;;;;34.42;21.55;;;;;;;;;;2106723;28;20123;-42
2022/11/16 00:40:37;;;;;;;35.80;22.42;;;;;;;;;;2106914;28;20048;-42
2022/11/16 00:41:38;;;;;;;37.10;22.10;;;;;;;;;;2106742;28;20520;-42
2022/11/16 00:42:39;;;;;;;41.42;23.15;;;;;;;;;;2106828;28;20056;-42
2022/11/16 00:43:41;;;;;;;35.60;22.45;;;;;;;;;;2106958;28;20105;-45
2022/11/16 00:44:42;;;;;;;;;;;;;;;;;;2107303;28;20055;-46
2022/11/16 00:45:43;;;;;;;34.45;21.65;;;;;;;;;;2106613;28;20415;-45
2022/11/16 00:47:03;;;;;;;34.58;21.52;;;;;;;;;;2107002;28;20052;-42
2022/11/16 00:48:04;;;;;;;32.85;20.95;;;;;;;;;;2106647;28;20511;-42
2022/11/16 00:49:05;;;;;;;33.13;21.55;;;;;;;;;;2106681;28;20052;-42
2022/11/16 00:50:07;;;;;;;36.03;22.65;;;;;;;;;;2106817;28;20048;-42
2022/11/16 00:51:08;;;;;;;34.28;22.20;;;;;;;;;;2106712;28;20052;-42
2022/11/16 00:52:09;;;;;;;34.88;22.27;;;;;;;;;;2106888;28;20054;-42
2022/11/16 00:53:11;;;;;;;33.15;22.17;;;;;;;;;;2106770;28;20248;-42
2022/11/16 00:54:12;;;;;;;32.70;21.55;;;;;;;;;;2106619;28;20484;-43
2022/11/16 00:55:14;;;;;;;35.03;21.93;;;;;;;;;;2106434;28;20040;-42
2022/11/16 00:56:15;;;;;;;36.28;22.52;;;;;;;;;;2106745;28;20044;-42
2022/11/16 00:57:16;;;;;;;39.40;24.07;;;;;;;;;;2106745;28;20127;-42
2022/11/16 00:58:17;;;;;;;38.60;23.75;;;;;;;;;;2106796;28;20043;-42
2022/11/16 00:59:19;;;;;;;37.03;23.75;;;;;;;;;;2106812;28;20040;-42
2022/11/16 01:00:20;;;;;;;43.35;23.33;;;;;;;;;;2106589;28;20089;-42
2022/11/16 01:01:21;;;;;;;34.15;21.27;;;;;;;;;;2106585;28;20419;-42
2022/11/16 01:02:23;;;;;;;36.33;21.95;;;;;;;;;;2106587;28;20071;-42
2022/11/16 01:03:23;;;;;;;41.03;25.65;;;;;;;;;;2106599;28;20044;-42
2022/11/16 01:04:25;;;;;;;36.85;23.58;;;;;;;;;;2106516;28;20055;-42
2022/11/16 01:05:26;;;;;;;36.40;22.50;;;;;;;;;;2106435;28;20051;-42
2022/11/16 01:06:27;;;;;;;38.00;23.83;;;;;;;;;;2106938;28;20174;-46
2022/11/16 01:07:28;;;;;;;36.45;22.75;;;;;;;;;;2106721;28;20044;-46
2022/11/16 01:08:29;;;;;;;35.50;22.92;;;;;;;;;;2104885;28;20044;-44
2022/11/16 01:09:31;;;;;;;37.28;23.40;;;;;;;;;;2098032;28;20135;-45
2022/11/16 01:10:32;;;;;;;39.23;23.90;;;;;;;;;;2098332;28;20072;-45
2022/11/16 01:12:53;;;;;;;37.88;22.58;;;;;;;;;;2098246;28;20067;-45
2022/11/16 01:13:54;;;;;;;37.83;23.15;;;;;;;;;;2098213;28;20048;-45
2022/11/16 01:14:56;;;;;;;42.00;25.70;;;;;;;;;;2098259;28;20049;-45
2022/11/16 01:15:57;;;;;;;;;;;;;;;;;;2102980;28;20044;-45
2022/11/16 01:16:58;;;;;;;40.22;24.13;;;;;;;;;;2106677;28;19920;-45
2022/11/16 01:17:59;;;;;;;35.42;21.67;;;;;;;;;;2106509;28;20051;-45
2022/11/16 01:19:01;;;;;;;41.30;24.55;;;;;;;;;;2106402;28;20127;-45
2022/11/16 01:20:03;;;;;;;34.05;21.55;;;;;;;;;;2106527;28;20427;-45
2022/11/16 01:21:04;;;;;;;;;;;;;;;;;;2107176;28;20082;-46
2022/11/16 01:22:05;;;;;;;40.78;24.27;;;;;;;;;;2105597;28;19926;-46
2022/11/16 01:23:06;;;;;;;39.63;23.37;;;;;;;;;;2106530;28;20514;-42
2022/11/16 01:24:07;;;;;;;40.83;25.33;;;;;;;;;;2106378;28;20408;-42
2022/11/16 01:25:09;;;;;;;47.03;25.63;;;;;;;;;;2106507;28;20040;-42
2022/11/16 01:26:10;;;;;;;;;;;;;;;;;;2106876;28;20292;-42
2022/11/16 01:27:11;;;;;;;39.08;23.80;;;;;;;;;;2106384;28;19924;-42
2022/11/16 01:28:12;;;;;;;45.83;23.95;;;;;;;;;;2106581;28;20047;-42
2022/11/16 01:29:13;;;;;;;41.38;24.15;;;;;;;;;;2106219;28;20485;-42
2022/11/16 01:30:15;;;;;;;40.00;24.95;;;;;;;;;;2106540;28;20050;-42
2022/11/16 01:31:16;;;;;;;;;;;;;;;;;;2106807;28;20074;-42
2022/11/16 01:32:17;;;;;;;38.60;24.35;;;;;;;;;;2106484;28;19920;-42
2022/11/16 01:33:19;;;;;;;43.57;24.63;;;;;;;;;;2106467;28;20043;-42
2022/11/16 01:34:20;;;;;;;39.03;22.85;;;;;;;;;;2106434;28;20291;-42
2022/11/16 01:35:21;;;;;;;41.45;23.42;;;;;;;;;;2106468;28;20056;-42
2022/11/16 01:36:22;;;;;;;38.17;22.88;;;;;;;;;;2106256;28;20092;-42
2022/11/16 01:37:23;;;;;;;39.90;24.67;;;;;;;;;;2106400;28;20047;-42
2022/11/16 01:38:24;;;;;;;40.70;23.70;;;;;;;;;;2106543;28;20046;-42
2022/11/16 01:39:30;;;;;;;37.28;23.83;;;;;;;;;;2106407;28;20079;-42
2022/11/16 01:40:31;;;;;;;38.38;23.35;;;;;;;;;;2106352;28;20047;-42
2022/11/16 01:41:33;;;;;;;41.43;25.00;;;;;;;;;;2106481;28;20044;-42
2022/11/16 01:42:34;;;;;;;40.65;25.42;;;;;;;;;;2106383;28;20093;-42
2022/11/16 01:43:49;;;;;;;38.63;24.23;;;;;;;;;;2106422;28;20051;-42
2022/11/16 01:44:58;;;;;;;40.67;24.48;;;;;;;;;;2106517;28;20338;-45
2022/11/16 01:45:59;;;;;;;38.05;24.00;;;;;;;;;;2106419;28;20126;-45
2022/11/16 01:47:01;;;;;;;;;;;;;;;;;;2106823;28;20054;-45
2022/11/16 01:48:02;;;;;;;38.92;24.60;;;;;;;;;;2106380;28;19965;-44
2022/11/16 01:49:05;;;;;;;38.17;22.08;;;;;;;;;;2106137;28;20048;-45
2022/11/16 01:50:08;;;;;;;39.75;24.05;;;;;;;;;;2106310;28;20400;-47
2022/11/16 01:51:09;;;;;;;41.25;23.65;;;;;;;;;;2106178;28;20097;-44
2022/11/16 01:52:13;;;;;;;38.85;24.50;;;;;;;;;;2106309;28;20501;-46
2022/11/16 01:53:15;;;;;;;42.05;24.85;;;;;;;;;;2106253;28;20040;-45
2022/11/16 01:54:16;;;;;;;44.65;24.73;;;;;;;;;;2106161;28;20036;-47
2022/11/16 01:55:17;;;;;;;40.05;24.75;;;;;;;;;;2106455;28;20040;-46
2022/11/16 01:56:19;;;;;;;45.05;26.17;;;;;;;;;;2106184;28;20040;-46
2022/11/16 01:57:22;;;;;;;41.83;25.10;;;;;;;;;;2106266;28;20377;-45
2022/11/16 01:58:24;;;;;;;40.75;25.20;;;;;;;;;;2106197;28;20494;-46
2022/11/16 01:59:24;;;;;;;;;;;;;;;;;;2106577;28;20464;-45
2022/11/16 02:00:26;;;;;;;41.35;24.27;;;;;;;;;;2106113;28;19920;-45
2022/11/16 02:01:27;;;;;;;41.13;23.90;;;;;;;;;;2106069;28;20048;-46
2022/11/16 02:02:29;;;;;;;39.33;24.13;;;;;;;;;;2106270;28;20067;-45
2022/11/16 02:03:30;;;;;;;45.22;24.17;;;;;;;;;;2106216;28;20055;-45
2022/11/16 02:04:31;;;;;;;45.50;24.63;;;;;;;;;;2106210;28;20054;-46
2022/11/16 02:05:37;;;;;;;42.30;23.88;;;;;;;;;;2106309;28;20086;-45
2022/11/16 02:06:59;;;;;;;40.90;23.33;;;;;;;;;;2106406;28;20076;-45
2022/11/16 02:09:53;;;;;;;48.20;25.35;;;;;;;;;;2097756;28;20052;-42
2022/11/16 02:11:03;;;;;;;50.60;25.80;;;;;;;;;;2097981;28;20048;-42
2022/11/16 02:12:13;;;;;;;47.05;24.95;;;;;;;;;;2097833;28;20059;-42
2022/11/16 02:13:20;;;;;;;40.80;24.65;;;;;;;;;;2097794;28;20040;-42
2022/11/16 02:14:29;;;;;;;42.67;24.27;;;;;;;;;;2097492;28;20060;-42
2022/11/16 02:15:32;;;;;;;46.67;26.25;;;;;;;;;;2097770;28;20493;-42
2022/11/16 02:16:37;;;;;;;45.80;25.58;;;;;;;;;;2097716;28;20040;-42
2022/11/16 02:17:41;;;;;;;41.33;23.75;;;;;;;;;;2097856;28;20055;-42
2022/11/16 02:18:49;;;;;;;40.58;23.35;;;;;;;;;;2097619;28;20451;-42
2022/11/16 02:19:59;;;;;;;46.35;23.85;;;;;;;;;;2098093;28;20048;-42
2022/11/16 02:21:04;;;;;;;45.72;24.65;;;;;;;;;;2097669;28;20049;-42
2022/11/16 02:22:08;;;;;;;48.03;25.20;;;;;;;;;;2098053;28;20048;-46
2022/11/16 02:23:20;;;;;;;47.10;26.38;;;;;;;;;;2097674;28;20504;-46
2022/11/16 02:24:29;;;;;;;52.05;24.55;;;;;;;;;;2097772;28;20072;-46
2022/11/16 02:25:33;;;;;;;44.50;23.67;;;;;;;;;;2097879;28;20495;-45
2022/11/16 02:26:40;;;;;;;49.33;24.70;;;;;;;;;;2097661;28;20048;-45
2022/11/16 02:28:06;;;;;;;47.22;24.60;;;;;;;;;;2097966;28;20055;-46
2022/11/16 02:29:15;;;;;;;53.90;25.60;;;;;;;;;;2072726;28;20041;-46
2022/11/16 02:30:17;;;;;;;49.45;25.60;;;;;;;;;;2097806;28;20489;-45
2022/11/16 02:31:20;;;;;;;48.20;25.95;;;;;;;;;;2097641;28;20382;-46
2022/11/16 02:32:25;;;;;;;53.90;27.73;;;;;;;;;;2097627;28;20048;-46
2022/11/16 02:33:29;;;;;;;51.45;25.92;;;;;;;;;;2097444;28;20045;-46
2022/11/16 02:34:33;;;;;;;49.97;26.13;;;;;;;;;;2097518;28;20048;-46
2022/11/16 02:35:36;;;;;;;55.85;27.38;;;;;;;;;;2097615;28;20424;-46
2022/11/16 02:36:39;;;;;;;53.90;26.63;;;;;;;;;;2097485;28;20486;-45
2022/11/16 02:37:42;;;;;;;56.63;27.15;;;;;;;;;;2097717;28;20052;-46
2022/11/16 02:38:47;;;;;;;52.63;26.83;;;;;;;;;;2097704;28;20493;-42
2022/11/16 02:39:51;;;;;;;56.15;26.88;;;;;;;;;;2097662;28;20397;-41
2022/11/16 02:40:54;;;;;;;51.65;25.77;;;;;;;;;;2097862;28;20048;-42
2022/11/16 02:41:56;;;;;;;56.03;27.70;;;;;;;;;;2097655;28;20083;-42
2022/11/16 02:43:00;;;;;;;53.28;26.25;;;;;;;;;;2097546;28;20067;-42
2022/11/16 02:44:03;;;;;;;60.85;28.02;;;;;;;;;;2097760;28;20048;-41
2022/11/16 02:45:08;;;;;;;54.65;27.33;;;;;;;;;;2097592;28;20048;-41
2022/11/16 02:46:11;;;;;;;61.95;27.77;;;;;;;;;;2097846;28;20059;-41
2022/11/16 02:47:16;;;;;;;65.57;29.10;;;;;;;;;;2097727;28;20151;-41
2022/11/16 02:48:19;;;;;;;54.83;28.30;;;;;;;;;;2097678;28;20041;-41
2022/11/16 02:49:22;;;;;;;54.75;27.20;;;;;;;;;;2097464;28;20404;-41
2022/11/16 02:50:24;;;;;;;57.35;27.98;;;;;;;;;;2097867;28;20040;-41
2022/11/16 02:51:26;;;;;;;55.85;27.13;;;;;;;;;;2097634;28;20060;-41
2022/11/16 02:52:27;;;;;;;63.80;28.67;;;;;;;;;;2097442;28;20393;-41
2022/11/16 02:53:31;;;;;;;59.20;29.08;;;;;;;;;;2097511;28;20052;-41
2022/11/16 02:54:32;;;;;;;54.45;26.52;;;;;;;;;;2097460;28;20052;-41
2022/11/16 02:55:34;;;;;;;50.73;26.67;;;;;;;;;;2097839;28;20044;-41
2022/11/16 02:56:35;;;;;;;;;;;;;;;;;;2098044;28;20106;-41
2022/11/16 02:57:42;;;;;;;57.08;28.38;;;;;;;;;;2101789;28;20326;-41
2022/11/16 02:58:43;;;;;;;61.55;28.38;;;;;;;;;;2105774;28;20060;-41
2022/11/16 02:59:46;;;;;;;58.08;28.50;;;;;;;;;;2105976;28;20059;-41
2022/11/16 03:00:51;;;;;;;60.15;28.73;;;;;;;;;;2105957;28;20044;-41
2022/11/16 03:01:57;;;;;;;56.78;26.92;;;;;;;;;;2105972;28;20669;-41
2022/11/16 03:03:11;;;;;;;58.22;27.73;;;;;;;;;;2105910;28;20067;-41
2022/11/16 03:04:14;;;;;;;58.42;29.92;;;;;;;;;;2105943;28;20056;-45
2022/11/16 03:05:17;;;;;;;60.28;30.05;;;;;;;;;;2105930;28;20489;-46
2022/11/16 03:06:20;;;;;;;61.72;27.45;;;;;;;;;;2105879;28;20039;-46
2022/11/16 03:07:28;;;;;;;65.50;29.58;;;;;;;;;;2105948;28;20052;-46
2022/11/16 03:08:30;;;;;;;59.53;27.48;;;;;;;;;;2104104;28;20089;-47
2022/11/16 03:09:34;;;;;;;59.45;28.60;;;;;;;;;;2097399;28;20059;-46
2022/11/16 03:11:58;;;;;;;57.33;27.88;;;;;;;;;;2097597;28;20049;-46
2022/11/16 03:13:00;;;;;;;57.92;29.30;;;;;;;;;;2097389;28;20048;-47
2022/11/16 03:14:04;;;;;;;63.10;28.70;;;;;;;;;;2097526;28;20052;-47
2022/11/16 03:15:08;;;;;;;58.13;26.95;;;;;;;;;;2097359;28;20550;-46
2022/11/16 03:16:13;;;;;;;64.00;28.27;;;;;;;;;;2097679;28;20052;-47
2022/11/16 03:17:16;;;;;;;56.15;26.88;;;;;;;;;;2097451;28;20037;-46
2022/11/16 03:18:18;;;;;;;58.28;28.10;;;;;;;;;;2097497;28;20044;-45
2022/11/16 03:19:19;;;;;;;;;;;;;;;;;;2098036;28;20051;-42
2022/11/16 03:20:25;;;;;;;59.15;28.70;;;;;;;;;;2097592;28;19970;-42
2022/11/16 03:21:28;;;;;;;59.80;28.05;;;;;;;;;;2097395;28;20112;-42
2022/11/16 03:22:32;;;;;;;60.20;29.25;;;;;;;;;;2097406;28;20508;-43
2022/11/16 03:23:33;;;;;;;69.15;33.40;;;;;;;;;;2097535;28;20072;-47
2022/11/16 03:24:34;;;;;;;70.77;36.50;;;;;;;;;;2097487;28;20048;-46
2022/11/16 03:25:37;;;;;;;72.05;37.08;;;;;;;;;;2097331;28;20049;-46
2022/11/16 03:26:45;;;;;;;74.55;35.60;;;;;;;;;;2097485;28;20048;-49
2022/11/16 03:27:48;;;;;;;73.05;34.15;;;;;;;;;;2097462;28;20048;-45
2022/11/16 03:28:54;;;;;;;70.15;36.40;;;;;;;;;;2097366;28;20051;-45
2022/11/16 03:29:59;;;;;;;67.05;33.80;;;;;;;;;;2097370;28;20493;-49
2022/11/16 03:31:03;;;;;;;67.20;33.83;;;;;;;;;;2097303;28;20059;-48
2022/11/16 03:32:09;;;;;;;70.78;32.97;;;;;;;;;;2097350;28;20505;-46
2022/11/16 03:33:16;;;;;;;69.72;31.98;;;;;;;;;;2097458;28;20098;-42
2022/11/16 03:34:18;;;;;;;69.15;32.92;;;;;;;;;;2097434;28;20045;-43
2022/11/16 03:35:22;;;;;;;72.05;33.13;;;;;;;;;;2097273;28;20044;-43
2022/11/16 03:36:24;;;;;;;74.15;33.42;;;;;;;;;;2097611;28;20058;-47
2022/11/16 03:37:26;;;;;;;70.75;33.08;;;;;;;;;;2097278;28;20045;-47
2022/11/16 03:38:27;;;;;;;67.82;31.90;;;;;;;;;;2097446;28;20045;-45
2022/11/16 03:39:31;;;;;;;74.47;33.70;;;;;;;;;;2097177;28;20049;-47
2022/11/16 03:40:32;;;;;;;71.82;33.47;;;;;;;;;;2097621;28;20382;-43
2022/11/16 03:41:33;;;;;;;;;;;;;;;;;;2097772;28;20045;-44
2022/11/16 03:42:35;;;;;;;63.97;30.50;;;;;;;;;;2097443;28;19924;-43
2022/11/16 03:43:37;;;;;;;72.15;31.70;;;;;;;;;;2097160;28;20055;-43
2022/11/16 03:44:38;;;;;;;67.05;31.63;;;;;;;;;;2097295;28;20489;-44
2022/11/16 03:45:39;;;;;;;68.53;31.70;;;;;;;;;;2097899;28;20386;-43
2022/11/16 03:46:41;;;;;;;66.95;30.33;;;;;;;;;;2098665;28;20047;-43
2022/11/16 03:47:43;;;;;;;71.70;31.90;;;;;;;;;;2098863;28;20405;-43
2022/11/16 03:48:44;;;;;;;68.55;33.58;;;;;;;;;;2098565;28;20044;-43
2022/11/16 03:49:46;;;;;;;67.65;32.28;;;;;;;;;;2098630;28;20493;-44
2022/11/16 03:50:47;;;;;;;66.28;31.95;;;;;;;;;;2098655;28;20056;-44
2022/11/16 03:51:49;;;;;;;71.07;33.13;;;;;;;;;;2098819;28;20060;-44
2022/11/16 03:52:50;;;;;;;67.65;31.02;;;;;;;;;;2098720;28;20048;-43
2022/11/16 03:53:51;;;;;;;69.43;31.17;;;;;;;;;;2102912;28;20051;-43
2022/11/16 03:54:52;;;;;;;70.32;33.00;;;;;;;;;;2107085;28;20059;-43
2022/11/16 03:55:53;;;;;;;70.72;32.97;;;;;;;;;;2107398;28;20044;-46
2022/11/16 03:56:54;;;;;;;73.07;32.03;;;;;;;;;;2107196;28;20096;-49
2022/11/16 03:57:55;;;;;;;71.97;32.00;;;;;;;;;;2106990;28;20400;-48
2022/11/16 03:58:56;;;;;;;72.30;33.40;;;;;;;;;;2107284;28;20063;-44
2022/11/16 03:59:57;;;;;;;67.90;34.03;;;;;;;;;;2106983;28;20048;-44
2022/11/16 04:00:58;;;;;;;71.67;32.50;;;;;;;;;;2107128;28;20513;-43
2022/11/16 04:01:59;;;;;;;77.18;33.80;;;;;;;;;;2106953;28;20562;-43
2022/11/16 04:03:01;;;;;;;69.07;32.30;;;;;;;;;;2107175;28;20048;-44
2022/11/16 04:04:02;;;;;;;75.80;34.13;;;;;;;;;;2106846;28;20428;-44
2022/11/16 04:24:13;;;;;;;77.22;32.95;;;;;;;;;;2098525;28;20055;-48
2022/11/16 04:25:16;;;;;;;77.60;34.38;;;;;;;;;;2098806;28;20489;-47
2022/11/16 04:26:17;;;;;;;74.68;33.72;;;;;;;;;;2098504;28;20083;-46
2022/11/16 04:28:38;;;;;;;72.32;32.63;;;;;;;;;;2098546;28;20048;-48
2022/11/16 04:29:39;;;;;;;70.80;33.37;;;;;;;;;;2098348;28;20102;-48
2022/11/16 04:37:52;;;;;;;67.93;30.45;;;;;;;;;;2072861;28;20057;-43
2022/11/16 04:38:53;;;;;;;68.82;33.30;;;;;;;;;;2095425;28;20058;-44
2022/11/16 04:39:54;;;;;;;81.50;34.50;;;;;;;;;;2098292;28;20067;-44
2022/11/16 04:40:55;;;;;;;71.32;32.80;;;;;;;;;;2098543;28;20040;-43
2022/11/16 04:42:14;;;;;;;72.27;33.33;;;;;;;;;;2098943;28;20045;-43
2022/11/16 04:43:15;;;;;;;68.43;32.80;;;;;;;;;;2098467;28;20055;-44
2022/11/16 04:44:16;;;;;;;85.65;36.30;;;;;;;;;;2098381;28;20044;-43
2022/11/16 04:47:56;;;;;;;74.45;32.42;;;;;;;;;;2098603;28;20049;-46
2022/11/16 04:48:57;;;;;;;65.80;32.15;;;;;;;;;;2098292;28;20044;-47
2022/11/16 04:49:58;;;;;;;65.82;30.70;;;;;;;;;;2101511;28;20051;-46
2022/11/16 04:50:59;;;;;;;78.97;34.17;;;;;;;;;;2106827;28;20055;-48
2022/11/16 04:52:00;;;;;;;73.88;34.20;;;;;;;;;;2106604;28;20075;-46
2022/11/16 04:53:02;;;;;;;69.93;32.58;;;;;;;;;;2106697;28;20082;-46
2022/11/16 04:54:03;;;;;;;82.72;34.50;;;;;;;;;;2106515;28;20040;-47
2022/11/16 04:55:04;;;;;;;77.97;35.15;;;;;;;;;;2107290;28;20052;-43
2022/11/16 04:56:06;;;;;;;78.55;36.10;;;;;;;;;;2106681;28;20051;-42
2022/11/16 04:57:07;;;;;;;74.00;34.28;;;;;;;;;;2106873;28;20052;-43
2022/11/16 04:58:08;;;;;;;82.40;36.03;;;;;;;;;;2106885;28;20052;-43
2022/11/16 04:59:09;;;;;;;77.55;35.10;;;;;;;;;;2106577;28;20512;-44
2022/11/16 05:00:10;;;;;;;77.28;34.70;;;;;;;;;;2106893;28;20055;-47
2022/11/16 05:01:11;;;;;;;78.30;35.33;;;;;;;;;;2106752;28;20098;-46
2022/11/16 05:02:14;;;;;;;77.32;34.13;;;;;;;;;;2106580;28;20047;-47
2022/11/16 05:03:14;;;;;;;70.82;32.00;;;;;;;;;;2106351;28;20044;-45
2022/11/16 05:04:16;;;;;;;71.63;33.63;;;;;;;;;;2106640;28;20044;-45
2022/11/16 05:05:18;;;;;;;70.40;33.72;;;;;;;;;;2106817;28;20051;-43
2022/11/16 05:06:19;;;;;;;76.05;33.50;;;;;;;;;;2106950;28;20101;-42
2022/11/16 05:07:20;;;;;;;75.93;34.13;;;;;;;;;;2107036;28;20189;-42
2022/11/16 05:08:21;;;;;;;68.50;33.17;;;;;;;;;;2105928;28;20052;-42
2022/11/16 05:09:22;;;;;;;77.38;34.88;;;;;;;;;;2098279;28;20048;-42
2022/11/16 05:10:23;;;;;;;71.43;31.25;;;;;;;;;;2098355;28;20048;-43
2022/11/16 05:11:24;;;;;;;82.32;36.28;;;;;;;;;;2098251;28;20044;-43
2022/11/16 05:12:26;;;;;;;73.65;35.90;;;;;;;;;;2098235;28;20048;-43
2022/11/16 05:13:27;;;;;;;80.75;37.33;;;;;;;;;;2098388;28;20090;-49
2022/11/16 05:14:28;;;;;;;86.30;39.72;;;;;;;;;;2098277;28;20048;-46
2022/11/16 05:15:29;;;;;;;76.37;36.93;;;;;;;;;;2098155;28;20481;-47
2022/11/16 05:16:30;;;;;;;70.95;34.42;;;;;;;;;;2098329;28;20041;-50
2022/11/16 05:17:32;;;;;;;75.45;33.90;;;;;;;;;;2098255;28;20049;-47
2022/11/16 05:18:32;;;;;;;84.32;37.80;;;;;;;;;;2097993;28;20048;-46
2022/11/16 05:21:00;;;;;;;79.70;35.45;;;;;;;;;;2098188;28;20044;-47
2022/11/16 05:22:01;;;;;;;80.50;35.85;;;;;;;;;;2098218;28;20048;-47
2022/11/16 05:23:02;;;;;;;79.90;34.50;;;;;;;;;;2098093;28;20071;-46
2022/11/16 05:25:22;;;;;;;67.63;31.33;;;;;;;;;;2098324;28;20044;-43
2022/11/16 05:26:24;;;;;;;77.60;32.22;;;;;;;;;;2098190;28;20047;-43
2022/11/16 05:27:25;;;;;;;63.10;30.38;;;;;;;;;;2098365;28;20069;-47
2022/11/16 05:28:26;;;;;;;;;;;;;;;;;;2107114;28;20046;-47
2022/11/16 05:29:27;;;;;;;61.53;29.75;;;;;;;;;;2106323;28;19920;-47
2022/11/16 05:30:29;;;;;;;73.33;33.37;;;;;;;;;;2106756;28;20088;-43
2022/11/16 05:31:30;;;;;;;63.33;30.73;;;;;;;;;;2106529;28;20044;-42
2022/11/16 05:32:31;;;;;;;67.20;32.70;;;;;;;;;;2106555;28;20040;-43
2022/11/16 05:33:32;;;;;;;65.60;32.85;;;;;;;;;;2106471;28;20048;-43
2022/11/16 05:34:33;;;;;;;65.32;31.73;;;;;;;;;;2106551;28;20055;-43
2022/11/16 05:35:34;;;;;;;65.43;30.25;;;;;;;;;;2106520;28;20058;-43
2022/11/16 05:36:36;;;;;;;60.33;29.90;;;;;;;;;;2106601;28;20522;-43
2022/11/16 05:37:37;;;;;;;64.65;31.88;;;;;;;;;;2106652;28;20055;-46
2022/11/16 05:38:38;;;;;;;66.47;32.08;;;;;;;;;;2106289;28;20352;-46
2022/11/16 05:39:39;;;;;;;64.73;31.13;;;;;;;;;;2106466;28;20076;-48
2022/11/16 05:40:40;;;;;;;70.05;32.63;;;;;;;;;;2106642;28;20052;-47
2022/11/16 05:41:42;;;;;;;68.93;32.50;;;;;;;;;;2106685;28;20397;-48
2022/11/16 05:42:43;;;;;;;70.30;32.38;;;;;;;;;;2106834;28;20047;-44
2022/11/16 05:43:44;;;;;;;64.00;32.40;;;;;;;;;;2106180;28;20044;-41
2022/11/16 05:44:45;;;;;;;71.00;32.30;;;;;;;;;;2106574;28;20054;-43
2022/11/16 05:45:46;;;;;;;73.80;34.33;;;;;;;;;;2106292;28;20048;-42
2022/11/16 05:46:47;;;;;;;69.80;32.88;;;;;;;;;;2106129;28;20473;-42
2022/11/16 05:47:48;;;;;;;61.83;30.88;;;;;;;;;;2106298;28;20504;-42
2022/11/16 05:48:50;;;;;;;64.78;31.80;;;;;;;;;;2106512;28;20051;-42
2022/11/16 05:49:50;;;;;;;63.53;32.00;;;;;;;;;;2106267;28;20051;-42
2022/11/16 05:50:56;;;;;;;65.57;32.15;;;;;;;;;;2106652;28;20087;-42
2022/11/16 05:51:58;;;;;;;69.68;31.35;;;;;;;;;;2106232;28;20389;-42
2022/11/16 05:52:59;;;;;;;67.43;31.33;;;;;;;;;;2106821;28;20047;-42
2022/11/16 05:54:00;;;;;;;60.42;29.42;;;;;;;;;;2106314;28;20051;-42
2022/11/16 05:55:01;;;;;;;62.17;29.90;;;;;;;;;;2106225;28;20480;-42
2022/11/16 05:56:02;;;;;;;62.08;30.02;;;;;;;;;;2106442;28;20489;-42
2022/11/16 05:57:03;;;;;;;63.35;31.35;;;;;;;;;;2106252;28;20059;-42
2022/11/16 05:58:04;;;;;;;60.58;30.25;;;;;;;;;;2106233;28;20541;-42
2022/11/16 05:59:06;;;;;;;64.43;31.73;;;;;;;;;;2106387;28;20051;-46
2022/11/16 06:00:07;;;;;;;65.80;31.67;;;;;;;;;;2106733;28;20044;-42
2022/11/16 06:01:08;;;;;;;61.53;28.55;;;;;;;;;;2106263;28;20043;-42
2022/11/16 06:02:09;;;;;;;67.47;30.10;;;;;;;;;;2106322;28;20067;-42
2022/11/16 06:03:10;;;;;;;60.80;29.67;;;;;;;;;;2106466;28;20101;-46
2022/11/16 06:04:12;;;;;;;62.63;30.20;;;;;;;;;;2106253;28;20048;-46
2022/11/16 06:05:13;;;;;;;62.55;29.13;;;;;;;;;;2106316;28;20087;-45
2022/11/16 06:06:14;;;;;;;62.65;30.33;;;;;;;;;;2106223;28;20071;-46
2022/11/16 06:07:16;;;;;;;61.30;30.42;;;;;;;;;;2106284;28;20044;-46
2022/11/16 06:08:17;;;;;;;;;;;;;;;;;;2106156;28;20043;-42
2022/11/16 06:09:18;;;;;;;66.32;29.67;;;;;;;;;;2097991;28;20391;-46
2022/11/16 06:10:19;;;;;;;63.60;30.55;;;;;;;;;;2097823;28;20044;-47
2022/11/16 06:11:20;;;;;;;68.22;32.10;;;;;;;;;;2097947;28;20367;-47
2022/11/16 06:12:21;;;;;;;61.08;30.60;;;;;;;;;;2098314;28;20040;-43
2022/11/16 06:13:22;;;;;;;64.37;30.63;;;;;;;;;;2097766;28;20622;-42
2022/11/16 06:14:23;;;;;;;66.82;31.85;;;;;;;;;;2097711;28;20122;-42
2022/11/16 06:15:24;;;;;;;62.70;29.83;;;;;;;;;;2102396;28;20044;-42
2022/11/16 06:16:25;;;;;;;65.60;32.30;;;;;;;;;;2105463;28;20093;-45
2022/11/16 06:17:26;;;;;;;64.30;31.02;;;;;;;;;;2105440;28;20096;-42
2022/11/16 06:18:27;;;;;;;69.18;32.58;;;;;;;;;;2105561;28;20447;-46
2022/11/16 06:19:29;;;;;;;59.95;29.20;;;;;;;;;;2105595;28;20040;-42
2022/11/16 06:20:33;;;;;;;64.05;31.10;;;;;;;;;;2105489;28;20482;-42
2022/11/16 06:21:34;;;;;;;64.80;31.80;;;;;;;;;;2105402;28;20072;-46
2022/11/16 06:22:35;;;;;;;70.72;31.95;;;;;;;;;;2105662;28;20063;-46
2022/11/16 06:23:37;;;;;;;68.22;32.38;;;;;;;;;;2105813;28;20404;-46
2022/11/16 06:24:37;;;;;;;63.22;30.90;;;;;;;;;;2106096;28;20051;-46
2022/11/16 06:25:39;;;;;;;70.35;32.33;;;;;;;;;;2105878;28;20079;-45
2022/11/16 06:26:40;;;;;;;71.35;33.35;;;;;;;;;;2105463;28;20062;-42
2022/11/16 06:27:41;;;;;;;73.25;33.20;;;;;;;;;;2105812;28;20138;-42
2022/11/16 06:28:42;;;;;;;70.60;33.58;;;;;;;;;;2105790;28;20077;-47
2022/11/16 06:29:43;;;;;;;67.38;32.85;;;;;;;;;;2105811;28;20134;-45
2022/11/16 06:30:44;;;;;;;64.07;31.27;;;;;;;;;;2105774;28;20048;-46
2022/11/16 06:31:45;;;;;;;63.17;30.65;;;;;;;;;;2106010;28;20052;-42
2022/11/16 06:32:46;;;;;;;66.65;30.27;;;;;;;;;;2105933;28;20048;-42
2022/11/16 06:33:47;;;;;;;61.15;30.25;;;;;;;;;;2105876;28;20090;-46
2022/11/16 06:34:48;;;;;;;60.35;30.77;;;;;;;;;;2105866;28;20408;-42
2022/11/16 06:35:49;;;;;;;59.30;28.47;;;;;;;;;;2105989;28;20056;-42
2022/11/16 06:36:50;;;;;;;60.05;30.02;;;;;;;;;;2105830;28;20448;-46
2022/11/16 06:37:52;;;;;;;65.45;31.92;;;;;;;;;;2105890;28;20497;-41
2022/11/16 06:38:53;;;;;;;63.50;31.13;;;;;;;;;;2105853;28;20256;-48
2022/11/16 06:39:54;;;;;;;55.08;27.60;;;;;;;;;;2105772;28;20040;-42
2022/11/16 06:40:57;;;;;;;58.13;29.58;;;;;;;;;;2105856;28;20066;-42
2022/11/16 06:41:57;;;;;;;57.88;28.77;;;;;;;;;;2105780;28;20055;-42